createdAt,value
2022-08-26T00:08:56.660Z,226
2022-08-26T00:23:58.576Z,146
2022-08-26T00:39:00.467Z,300
2022-08-26T00:54:03.864Z,337
2022-08-26T01:09:05.800Z,256
2022-08-26T01:24:07.722Z,208
2022-08-26T01:39:12.221Z,199
2022-08-26T01:54:14.249Z,179
2022-08-26T02:09:16.133Z,104
2022-08-26T02:24:18.051Z,37
2022-08-26T02:39:22.358Z,9
2022-08-26T02:54:24.466Z,3
2022-08-26T03:09:26.368Z,0
2022-08-26T03:24:28.367Z,0
2022-08-26T03:39:31.603Z,0
2022-08-26T03:54:34.549Z,0
2022-08-26T04:09:36.479Z,0
2022-08-26T04:24:38.365Z,0
2022-08-26T04:39:40.265Z,1
2022-08-26T04:54:42.393Z,1
2022-08-26T05:09:44.318Z,1
2022-08-26T05:24:46.173Z,1
2022-08-26T05:39:48.776Z,0
2022-08-26T05:54:53.193Z,0
2022-08-26T06:10:09.976Z,0
2022-08-26T06:25:30.395Z,0
2022-08-26T06:40:32.415Z,0
2022-08-26T06:55:34.396Z,0
2022-08-26T07:10:36.339Z,0
2022-08-26T07:25:38.258Z,0
2022-08-26T07:40:40.854Z,0
2022-08-26T07:55:42.752Z,0
2022-08-26T08:10:44.682Z,0
2022-08-26T08:25:50.810Z,0
2022-08-26T08:40:52.797Z,0
2022-08-26T08:55:55.730Z,0
2022-08-26T09:10:57.630Z,0
2022-08-26T09:25:59.507Z,0
2022-08-26T09:41:01.407Z,0
2022-08-26T09:56:04.082Z,0
2022-08-26T10:11:08.398Z,0
2022-08-26T10:26:11.319Z,0
2022-08-26T10:41:15.844Z,0
2022-08-26T10:56:19.374Z,0
2022-08-26T11:11:21.352Z,0
2022-08-26T11:26:35.679Z,0
2022-08-26T11:41:39.752Z,0
2022-08-26T11:56:41.780Z,0
2022-08-26T12:11:43.716Z,0
2022-08-26T12:26:45.609Z,0
2022-08-26T12:41:47.831Z,0
2022-08-26T12:56:49.753Z,3
2022-08-26T13:11:53.989Z,12
2022-08-26T13:26:55.859Z,26
2022-08-26T13:41:57.735Z,38
2022-08-26T13:56:59.612Z,55
2022-08-26T14:12:02.818Z,67
2022-08-26T14:27:04.839Z,77
2022-08-26T14:42:06.741Z,84
2022-08-26T14:57:08.617Z,91
2022-08-26T15:12:10.516Z,91
2022-08-26T15:27:12.420Z,94
2022-08-26T15:42:14.318Z,97
2022-08-26T15:57:18.706Z,101
2022-08-26T16:12:21.703Z,122
2022-08-26T16:27:23.590Z,88
2022-08-26T16:42:25.473Z,81
2022-08-26T16:57:27.374Z,87
2022-08-26T17:12:29.275Z,88
2022-08-26T17:27:31.171Z,79
2022-08-26T17:42:33.077Z,101
2022-08-26T17:57:39.737Z,90
2022-08-26T18:12:42.913Z,86
2022-08-26T18:27:44.815Z,100
2022-08-26T18:42:46.989Z,108
2022-08-26T18:57:55.605Z,115
2022-08-26T19:13:00.676Z,125
2022-08-26T19:28:04.485Z,113
2022-08-26T19:43:09.017Z,128
2022-08-26T19:58:13.958Z,183
2022-08-26T20:13:15.839Z,162
2022-08-26T20:28:17.706Z,98
2022-08-26T20:43:19.634Z,63
2022-08-26T20:58:21.527Z,115
2022-08-26T21:13:23.457Z,95
2022-08-26T21:28:25.393Z,151
2022-08-26T21:43:34.709Z,214
2022-08-26T21:58:37.178Z,213
2022-08-26T22:13:39.080Z,222
2022-08-26T22:28:40.978Z,237
2022-08-26T22:43:42.858Z,216
2022-08-26T22:58:44.832Z,306
2022-08-26T23:13:46.746Z,171
2022-08-26T23:28:48.668Z,149
2022-08-26T23:43:50.540Z,238
2022-08-26T23:58:52.387Z,297
